Time;durP1;ratioP1;P1;durP2;ratioP2;P2;SDS_P1;SDS_P2;PMS_P1;PMS_P2;Temp;Humidity;BMP_temperature;BMP_pressure;BME280_temperature;BME280_humidity;BME280_pressure;Samples;Min_cycle;Max_cycle;Signal;HPM_P1;HPM_P2
2023/06/24 00:09:49;;;;;;;;;;;;;;;;;;;;;
2023/06/24 00:13:57;;;;;;;;;;;;;;;;;;;;;
2023/06/24 00:17:29;;;;;;;6.55;4.00;;;;;;;16.18;83.44;101518.66;5026527;28;20057;-83
2023/06/24 00:20:36;;;;;;;9.00;4.13;;;;;;;16.07;84.69;101521.06;5035165;28;20088;-83
2023/06/24 00:23:43;;;;;;;10.45;4.50;;;;;;;16.11;84.67;101517.31;5022915;28;20593;-83
2023/06/24 00:27:47;;;;;;;;;;;;;;;;;;;;;
2023/06/24 00:31:56;;;;;;;;;;;;;;;;;;;;;
2023/06/24 00:35:58;;;;;;;8.32;4.38;;;;;;;16.06;84.79;101520.22;5011914;28;20052;-84
2023/06/24 00:39:33;;;;;;;;;;;;;;;;;;;;;
2023/06/24 00:42:53;;;;;;;5.70;4.00;;;;;;;16.05;84.12;101518.53;5022595;28;20061;-84
2023/06/24 00:51:13;;;;;;;;;;;;;;;;;;;;;
2023/06/24 00:55:19;;;;;;;7.25;4.03;;;;;;;15.93;84.58;101509.56;5009214;28;20044;-83
2023/06/24 01:13:52;;;;;;;;;;;;;;;;;;;;;
2023/06/24 01:18:20;;;;;;;8.10;4.50;;;;;;;15.58;85.42;101530.03;4887685;29;20464;-85
2023/06/24 01:27:07;;;;;;;7.82;4.25;;;;;;;15.62;85.15;101528.91;4932705;29;20046;-83
2023/06/24 01:31:12;;;;;;;5.13;4.28;;;;;;;15.62;85.26;101525.44;4986307;28;20048;-83
2023/06/24 01:34:55;;;;;;;7.30;4.70;;;;;;;15.66;85.21;101529.56;5023144;28;20083;-83
2023/06/24 01:39:06;;;;;;;;;;;;;;;;;;;;;
2023/06/24 01:43:36;;;;;;;;;;;;;;;;;;;;;
2023/06/24 01:47:53;;;;;;;6.32;5.22;;;;;;;15.87;83.92;101535.44;4933939;29;20596;-84
2023/06/24 01:51:14;;;;;;;7.18;5.10;;;;;;;15.79;84.42;101531.47;5008616;28;20481;-83
2023/06/24 01:54:20;;;;;;;7.88;5.07;;;;;;;15.66;85.01;101540.13;5031142;28;20088;-83
2023/06/24 01:57:26;;;;;;;9.10;5.40;;;;;;;15.59;85.51;101532.56;5018929;28;20052;-83
2023/06/24 02:00:39;;;;;;;18.65;6.40;;;;;;;15.52;85.94;101546.19;5029756;28;20076;-83
2023/06/24 02:03:43;;;;;;;8.98;5.15;;;;;;;15.55;85.73;101546.03;5031282;28;20565;-83
2023/06/24 02:07:01;;;;;;;7.07;4.80;;;;;;;15.57;86.03;101549.41;5018495;28;20075;-84
2023/06/24 02:10:12;;;;;;;7.93;5.15;;;;;;;15.71;84.77;101540.75;5032760;28;20075;-83
2023/06/24 02:13:38;;;;;;;;;;;;;;;;;;;;;
2023/06/24 02:21:44;;;;;;;8.75;5.63;;;;;;;15.95;83.75;101534.06;5017485;28;20115;-84
2023/06/24 02:25:16;;;;;;;8.38;5.30;;;;;;;15.88;84.04;101537.13;5032563;28;20052;-84
2023/06/24 02:28:57;;;;;;;;;;;;;;;;;;;;;
2023/06/24 02:33:13;;;;;;;;;;;;;;;;;;;;;
2023/06/24 02:36:24;;;;;;;6.28;4.97;;;;;;;15.82;84.07;101533.06;4952062;28;20070;-84
2023/06/24 02:39:37;;;;;;;7.75;5.00;;;;;;;15.87;83.48;101538.06;4952096;28;20042;-84
2023/06/24 02:42:44;;;;;;;9.02;5.35;;;;;;;15.91;83.48;101536.97;4952229;28;20141;-84
2023/06/24 02:45:56;;;;;;;10.75;5.88;;;;;;;15.78;83.70;101529.75;4959079;28;20099;-84
2023/06/24 02:49:04;;;;;;;10.05;5.38;;;;;;;15.78;84.46;101542.09;5019937;28;20569;-84
2023/06/24 02:52:25;;;;;;;6.75;6.10;;;;;;;15.81;84.17;101541.91;5020016;28;20068;-85
2023/06/24 02:56:36;;;;;;;9.07;5.70;;;;;;;15.73;84.45;101528.31;5019087;28;20111;-84
2023/06/24 03:05:22;;;;;;;11.23;6.13;;;;;;;15.48;85.78;101534.13;5032223;28;20537;-83
2023/06/24 03:08:48;;;;;;;8.55;6.22;;;;;;;15.42;86.46;101524.78;5022415;28;20052;-84
2023/06/24 04:10:47;;;;;;;9.07;7.15;;;;;;;15.41;88.11;101562.63;5053577;28;20490;-84
2023/06/24 04:15:08;;;;;;;;;;;;;;;;;;;;;
2023/06/24 04:19:32;;;;;;;;;;;;;;;;;;;;;
2023/06/24 04:42:51;;;;;;;;;;;;;;;;;;;;;
2023/06/24 04:47:24;;;;;;;10.05;7.40;;;;;;;15.31;88.32;101579.84;4859572;29;20102;-85
2023/06/24 04:51:00;;;;;;;;;;;;;;;;;;;;;
2023/06/24 04:55:32;;;;;;;;;;;;;;;;;;;;;
2023/06/24 05:29:10;;;;;;;6.45;5.85;;;;;;;15.78;86.43;101584.28;5311006;23;20062;-80
2023/06/24 05:32:24;;;;;;;;;;;;;;;;;;;;;
2023/06/24 05:35:51;;;;;;;8.45;6.20;;;;;;;16.14;85.33;101583.09;5053074;28;20542;-73
2023/06/24 05:38:54;;;;;;;5.40;4.90;;;;;;;16.13;84.92;101584.03;5053201;28;20399;-75
2023/06/24 05:41:58;;;;;;;7.78;5.70;;;;;;;16.23;84.35;101587.81;5053036;28;20040;-71
2023/06/24 05:45:01;;;;;;;6.50;5.20;;;;;;;16.32;84.73;101579.38;5053144;28;20048;-72
2023/06/24 05:48:05;;;;;;;5.07;4.57;;;;;;;16.45;84.61;101590.88;5052959;28;20120;-74
2023/06/24 05:51:08;;;;;;;6.88;4.57;;;;;;;16.66;83.79;101588.75;5040535;28;20052;-71
2023/06/24 05:54:12;;;;;;;7.53;4.82;;;;;;;16.74;83.20;101583.00;5052885;28;20096;-70
2023/06/24 05:57:15;;;;;;;9.45;5.50;;;;;;;16.81;82.69;101584.34;5052776;28;20095;-75
2023/06/24 06:00:19;;;;;;;7.25;4.88;;;;;;;16.94;82.00;101582.66;5052814;28;20039;-72
2023/06/24 06:13:08;;;;;;;5.60;4.65;;;;;;;17.02;81.90;101578.69;5052649;28;20091;-85
2023/06/24 06:16:13;;;;;;;8.00;4.60;;;;;;;17.20;81.50;101573.09;5051600;28;20467;-85
2023/06/24 06:43:07;;;;;;;9.30;4.55;;;;;;;17.94;77.28;101562.19;5051777;28;20049;-84
2023/06/24 06:46:13;;;;;;;5.30;4.47;;;;;;;17.98;75.24;101561.03;5052330;28;20056;-82
2023/06/24 06:49:20;;;;;;;6.68;4.60;;;;;;;18.07;75.05;101568.34;5052117;28;20086;-81
2023/06/24 06:52:28;;;;;;;4.85;4.13;;;;;;;18.16;74.97;101562.44;5051140;28;20090;-81
2023/06/24 06:55:32;;;;;;;5.05;3.72;;;;;;;18.32;76.07;101557.78;5039026;28;20083;-80
2023/06/24 06:58:36;;;;;;;7.07;4.18;;;;;;;18.46;76.54;101559.47;5052029;28;20106;-80
2023/06/24 07:01:39;;;;;;;5.38;4.70;;;;;;;18.56;75.67;101560.53;5052081;28;20513;-81
2023/06/24 07:04:43;;;;;;;7.30;3.85;;;;;;;18.63;74.96;101558.31;5051992;28;20418;-81
2023/06/24 07:07:49;;;;;;;6.38;4.22;;;;;;;18.72;74.66;101549.75;5052237;28;20187;-80
2023/06/24 07:10:53;;;;;;;5.55;4.13;;;;;;;18.69;73.58;101555.22;5052518;28;20043;-79
2023/06/24 07:13:57;;;;;;;5.85;4.47;;;;;;;18.79;73.58;101550.16;5053533;28;20462;-81
2023/06/24 07:17:00;;;;;;;5.45;4.63;;;;;;;18.86;73.26;101543.50;5053920;28;20182;-84
2023/06/24 07:20:05;;;;;;;7.85;4.32;;;;;;;18.95;73.16;101544.63;5054474;28;20087;-82
2023/06/24 07:23:10;;;;;;;6.90;4.63;;;;;;;19.03;72.30;101542.28;5056149;28;20171;-82
2023/06/24 07:26:14;;;;;;;5.80;4.07;;;;;;;19.11;72.38;101537.25;5055908;28;20051;-80
2023/06/24 07:29:20;;;;;;;6.32;4.47;;;;;;;19.21;72.00;101540.97;5033957;28;20481;-83
2023/06/24 07:32:24;;;;;;;6.13;4.50;;;;;;;19.31;71.53;101541.13;5035715;28;20052;-85
2023/06/24 07:35:28;;;;;;;6.03;4.03;;;;;;;19.44;71.86;101541.94;5035206;28;20064;-81
2023/06/24 07:38:32;;;;;;;16.77;5.28;;;;;;;19.57;70.79;101535.72;5035535;28;20051;-81
2023/06/24 07:41:36;;;;;;;5.20;4.10;;;;;;;19.63;69.98;101538.75;5035010;28;20044;-82
2023/06/24 07:44:39;;;;;;;4.85;3.90;;;;;;;19.70;69.71;101537.38;5035601;28;20525;-83
2023/06/24 07:47:43;;;;;;;5.18;3.58;;;;;;;19.88;69.99;101529.00;5035371;28;20095;-81
2023/06/24 07:50:46;;;;;;;5.07;3.55;;;;;;;19.98;68.14;101524.69;5035253;28;20099;-81
2023/06/24 07:53:49;;;;;;;6.57;4.30;;;;;;;20.11;67.11;101525.44;5035008;28;20410;-81
2023/06/24 07:56:55;;;;;;;8.27;4.07;;;;;;;20.15;67.97;101521.56;5033680;28;20103;-82
2023/06/24 08:00:00;;;;;;;5.28;3.80;;;;;;;20.31;67.38;101523.91;5034726;28;20087;-80
2023/06/24 08:03:07;;;;;;;5.20;3.58;;;;;;;20.40;67.33;101525.00;5034905;28;20502;-83
2023/06/24 08:06:13;;;;;;;5.18;3.65;;;;;;;20.43;67.46;101520.28;5034761;28;20179;-82
2023/06/24 08:09:17;;;;;;;6.78;3.90;;;;;;;20.53;66.80;101514.28;5034910;28;20064;-80
2023/06/24 08:12:20;;;;;;;4.97;3.53;;;;;;;20.74;66.59;101509.06;5034929;28;20156;-82
2023/06/24 08:15:24;;;;;;;6.97;3.67;;;;;;;20.83;66.12;101514.50;5022222;28;20044;-84
2023/06/24 08:19:01;;;;;;;4.28;3.22;;;;;;;21.02;65.47;101516.53;5033634;28;20052;-85
2023/06/24 08:23:00;;;;;;;5.40;3.78;;;;;;;21.15;64.22;101508.41;5034257;28;20080;-86
2023/06/24 08:26:53;;;;;;;4.75;3.45;;;;;;;21.32;64.94;101507.03;5033232;28;20049;-86
2023/06/24 09:18:34;;;;;;;5.68;4.32;;;;;;;23.20;50.17;101469.50;4889318;29;20123;-83
2023/06/24 09:21:42;;;;;;;7.68;4.35;;;;;;;23.23;47.92;101473.72;4896270;29;20087;-84
2023/06/24 09:24:48;;;;;;;6.95;4.03;;;;;;;23.16;48.10;101456.56;4884712;29;20085;-72
2023/06/24 09:27:59;;;;;;;6.35;4.00;;;;;;;23.16;48.26;101461.91;4908734;29;20055;-83
2023/06/24 09:31:09;;;;;;;4.75;3.72;;;;;;;23.35;46.74;101461.06;4991115;28;20068;-82
2023/06/24 09:34:14;;;;;;;5.40;3.28;;;;;;;23.34;48.05;101454.06;4982159;28;20045;-83
2023/06/24 09:37:30;;;;;;;5.90;3.92;;;;;;;23.44;48.62;101452.22;4982184;28;20412;-84
2023/06/24 09:40:36;;;;;;;5.65;3.70;;;;;;;23.54;48.62;101441.53;4982476;28;20045;-83
2023/06/24 09:43:47;;;;;;;4.85;3.95;;;;;;;23.81;48.41;101436.31;4982006;28;20065;-83
2023/06/24 09:46:57;;;;;;;5.53;4.30;;;;;;;23.75;47.02;101444.06;4982761;28;20078;-84
2023/06/24 09:50:24;;;;;;;7.78;3.70;;;;;;;23.74;47.02;101432.56;4989419;28;20133;-84
2023/06/24 09:53:37;;;;;;;5.88;3.65;;;;;;;23.60;46.98;101425.78;5013422;28;20101;-84
2023/06/24 10:00:40;;;;;;;5.50;3.83;;;;;;;23.96;48.29;101417.16;4999329;28;20526;-85
2023/06/24 10:03:46;;;;;;;5.00;3.58;;;;;;;24.14;48.99;101413.56;5013174;28;20111;-85
2023/06/24 10:07:18;;;;;;;4.85;3.85;;;;;;;24.10;48.61;101414.88;5005089;28;20053;-84
2023/06/24 10:11:15;;;;;;;6.05;3.60;;;;;;;24.19;47.09;101410.47;5000983;28;20080;-85
2023/06/24 10:30:40;;;;;;;;;;;;;;;;;;;;;
2023/06/24 10:35:30;;;;;;;;;;;;;;;;;;;;;
2023/06/24 10:52:12;;;;;;;8.27;3.00;;;;;;;24.53;45.81;101367.97;5038038;28;19928;-85
2023/06/24 10:55:43;;;;;;;6.63;3.50;;;;;;;24.74;45.68;101362.34;5048286;28;20124;-90
2023/06/24 10:58:57;;;;;;;5.45;3.45;;;;;;;24.96;44.90;101360.19;5036623;28;20071;-84
2023/06/24 11:02:01;;;;;;;5.47;3.20;;;;;;;24.92;44.37;101358.81;5047594;28;20149;-90
2023/06/24 11:05:27;;;;;;;4.57;3.42;;;;;;;25.11;44.12;101352.44;5048656;28;20422;-87
2023/06/24 11:08:32;;;;;;;4.32;3.00;;;;;;;25.70;43.16;101348.22;5049382;28;20136;-80
2023/06/24 11:11:41;;;;;;;4.03;2.45;;;;;;;25.75;43.33;101341.38;5049066;28;20098;-91
2023/06/24 11:14:51;;;;;;;4.57;3.03;;;;;;;25.70;42.49;101343.69;5033862;28;20044;-84
2023/06/24 11:17:57;;;;;;;4.15;2.67;;;;;;;25.78;42.78;101339.38;5049590;28;20476;-77
2023/06/24 11:21:09;;;;;;;4.13;3.03;;;;;;;25.73;43.22;101338.00;5037915;28;20060;-91
2023/06/24 11:24:14;;;;;;;3.92;2.95;;;;;;;25.60;41.93;101334.94;5042708;28;20154;-86
2023/06/24 11:27:49;;;;;;;4.40;3.40;;;;;;;25.68;41.92;101334.97;5001618;28;20044;-82
2023/06/24 11:30:53;;;;;;;4.25;3.00;;;;;;;25.52;42.36;101329.53;5010231;28;20057;-80
2023/06/24 11:33:56;;;;;;;8.15;4.10;;;;;;;25.48;41.01;101328.16;5010040;28;20048;-80
2023/06/24 11:37:20;;;;;;;8.60;3.60;;;;;;;25.68;41.41;101318.88;5011883;28;20076;-78
2023/06/24 11:40:24;;;;;;;4.43;3.10;;;;;;;25.74;40.82;101320.94;5011667;28;20514;-82
2023/06/24 11:43:28;;;;;;;6.35;2.78;;;;;;;25.67;41.25;101311.88;5011868;28;20044;-80
2023/06/24 11:46:33;;;;;;;3.85;2.85;;;;;;;25.68;40.75;101310.84;5012064;28;20141;-79
2023/06/24 11:49:58;;;;;;;4.22;3.10;;;;;;;25.74;41.09;101310.22;5011538;28;20108;-76
2023/06/24 11:53:01;;;;;;;3.92;2.80;;;;;;;25.70;41.10;101305.34;5013833;28;20041;-82
2023/06/24 11:56:04;;;;;;;3.85;2.90;;;;;;;25.70;42.39;101306.19;5016807;28;20048;-82
2023/06/24 11:59:18;;;;;;;3.80;2.60;;;;;;;25.87;41.99;101290.22;5019953;28;20136;-81
2023/06/24 12:02:21;;;;;;;5.63;2.95;;;;;;;25.81;40.72;101288.19;5017536;28;20044;-80
2023/06/24 12:05:30;;;;;;;5.63;2.70;;;;;;;25.64;39.89;101298.78;5010559;28;20048;-86
2023/06/24 12:08:33;;;;;;;7.82;3.70;;;;;;;25.64;39.38;101284.56;5015120;28;20045;-76
2023/06/24 12:11:37;;;;;;;6.47;3.22;;;;;;;25.64;41.14;101285.41;5015191;28;20080;-75
2023/06/24 12:14:40;;;;;;;4.05;2.95;;;;;;;25.74;40.48;101264.69;5015102;28;20040;-77
2023/06/24 12:17:44;;;;;;;4.70;2.83;;;;;;;25.93;40.70;101268.97;5003037;28;20045;-76
2023/06/24 12:20:47;;;;;;;5.10;3.10;;;;;;;26.04;40.36;101265.19;5015016;28;20578;-76
2023/06/24 12:23:50;;;;;;;5.45;2.90;;;;;;;26.30;40.20;101258.88;5015361;28;20111;-81
2023/06/24 12:26:55;;;;;;;4.55;2.70;;;;;;;26.57;40.53;101249.69;5014940;28;20049;-75
2023/06/24 12:29:58;;;;;;;5.22;3.20;;;;;;;26.82;40.34;101253.22;5228890;23;20409;-77
2023/06/24 12:33:02;;;;;;;3.60;2.88;;;;;;;26.73;39.10;101254.22;5053864;28;20141;-78
2023/06/24 12:36:06;;;;;;;5.82;3.00;;;;;;;26.85;38.56;101255.56;5041928;28;20522;-78
2023/06/24 12:39:09;;;;;;;4.13;3.20;;;;;;;26.74;38.01;101255.88;5045326;28;20087;-75
2023/06/24 12:42:12;;;;;;;3.70;2.72;;;;;;;26.52;38.40;101247.53;5045561;28;20202;-78
2023/06/24 12:45:16;;;;;;;4.97;3.20;;;;;;;26.67;39.82;101250.34;5045304;28;20051;-80
2023/06/24 12:48:19;;;;;;;5.07;3.15;;;;;;;26.60;39.97;101242.16;5045337;28;20088;-77
2023/06/24 12:51:22;;;;;;;5.53;2.90;;;;;;;26.81;40.22;101244.31;5045167;28;20187;-77
2023/06/24 12:54:25;;;;;;;5.20;2.90;;;;;;;27.02;37.55;101235.72;5034540;28;20049;-80
2023/06/24 12:57:29;;;;;;;3.72;2.63;;;;;;;27.20;36.96;101229.38;5045324;28;20138;-80
2023/06/24 13:00:33;;;;;;;5.80;2.65;;;;;;;27.36;38.29;101229.31;5045311;28;20040;-78
2023/06/24 13:03:36;;;;;;;4.93;2.92;;;;;;;27.25;37.96;101224.31;5044782;28;20071;-78
2023/06/24 13:06:40;;;;;;;5.63;3.55;;;;;;;27.08;37.77;101227.00;5041966;28;20080;-78
2023/06/24 13:09:43;;;;;;;4.00;3.03;;;;;;;26.94;38.27;101227.72;5045002;28;20044;-76
2023/06/24 13:12:47;;;;;;;3.60;2.55;;;;;;;27.08;40.05;101221.63;5044297;28;20040;-78
2023/06/24 13:15:51;;;;;;;3.50;2.75;;;;;;;27.50;39.50;101231.25;5044850;28;20182;-77
2023/06/24 13:18:54;;;;;;;5.90;2.78;;;;;;;27.60;36.55;101220.34;5044087;28;20052;-77
2023/06/24 13:21:57;;;;;;;3.88;2.72;;;;;;;27.76;35.45;101224.75;5044160;28;20086;-78
2023/06/24 13:25:01;;;;;;;3.78;2.75;;;;;;;27.86;35.09;101216.53;5043995;28;20047;-79
2023/06/24 13:28:05;;;;;;;5.78;2.80;;;;;;;27.68;35.27;101216.75;5044594;28;20088;-77
2023/06/24 13:31:09;;;;;;;4.13;2.83;;;;;;;27.85;35.22;101213.00;5044340;28;20044;-81
2023/06/24 13:34:12;;;;;;;6.45;2.85;;;;;;;28.30;35.80;101211.34;5040850;28;20176;-80
2023/06/24 13:37:16;;;;;;;3.50;2.40;;;;;;;28.54;35.77;101206.84;5044362;28;20083;-81
2023/06/24 13:40:19;;;;;;;3.30;2.35;;;;;;;28.81;36.00;101203.53;5044677;28;20056;-80
2023/06/24 13:43:22;;;;;;;4.00;2.75;;;;;;;28.78;33.79;101205.75;5044454;28;20044;-79
2023/06/24 13:46:27;;;;;;;5.57;3.40;;;;;;;28.80;34.03;101201.88;5044267;28;20047;-80
2023/06/24 13:49:30;;;;;;;5.82;2.88;;;;;;;29.25;33.91;101200.06;5044422;28;20044;-79
2023/06/24 13:53:28;;;;;;;4.18;3.20;;;;;;;29.35;33.93;101200.63;5031948;28;20040;-87
2023/06/24 13:56:33;;;;;;;6.57;3.08;;;;;;;28.98;33.05;101193.47;5044065;28;20084;-82
2023/06/24 13:59:36;;;;;;;5.45;3.35;;;;;;;28.70;33.05;101202.13;5044020;28;20120;-80
2023/06/24 14:02:41;;;;;;;3.95;3.15;;;;;;;28.60;32.96;101200.75;5041208;28;20160;-78
2023/06/24 14:05:45;;;;;;;5.30;3.03;;;;;;;28.58;35.10;101194.69;5042992;28;20478;-78
2023/06/24 14:08:50;;;;;;;3.92;3.10;;;;;;;29.16;33.98;101185.03;5043667;28;20139;-79
2023/06/24 14:12:02;;;;;;;4.20;2.83;;;;;;;29.79;33.34;101175.47;5031776;28;20049;-86
2023/06/24 14:15:51;;;;;;;3.90;2.90;;;;;;;29.91;32.93;101178.53;5031171;28;20068;-75
2023/06/24 14:18:59;;;;;;;3.30;2.63;;;;;;;29.85;34.33;101172.03;5032128;28;20080;-84
2023/06/24 14:22:06;;;;;;;6.72;3.25;;;;;;;30.58;32.48;101170.03;5032181;28;20056;-79
2023/06/24 14:25:19;;;;;;;3.78;3.00;;;;;;;30.52;31.56;101165.41;5032278;28;20132;-89
2023/06/24 14:29:10;;;;;;;11.30;3.33;;;;;;;30.29;33.07;101162.94;5033219;28;20517;-84
2023/06/24 14:32:38;;;;;;;4.32;3.00;;;;;;;30.29;32.22;101154.84;5032489;28;20101;-89
2023/06/24 14:35:42;;;;;;;4.00;2.90;;;;;;;30.11;32.10;101162.53;5032272;28;20104;-83
2023/06/24 14:38:46;;;;;;;4.28;3.00;;;;;;;30.43;32.22;101160.34;5012730;28;20423;-82
2023/06/24 14:41:58;;;;;;;;;;;;;;;30.14;32.46;101154.06;5012984;28;20057;-83
2023/06/24 14:45:04;;;;;;;3.92;2.63;;;;;;;29.95;32.75;101157.41;5012864;28;19995;-82
2023/06/24 14:48:19;;;;;;;7.53;3.30;;;;;;;30.19;33.48;101159.75;5001908;28;20544;-83
2023/06/24 14:51:33;;;;;;;3.50;3.08;;;;;;;29.65;33.21;101149.44;5025897;28;20071;-90
2023/06/24 14:54:40;;;;;;;4.82;3.30;;;;;;;29.60;33.15;101146.41;5032568;28;20045;-84
2023/06/24 14:57:44;;;;;;;6.63;2.88;;;;;;;29.29;33.60;101149.34;5020110;28;20164;-84
2023/06/24 15:00:49;;;;;;;5.40;3.65;;;;;;;29.22;34.15;101151.97;5031850;28;20052;-85
2023/06/24 15:04:04;;;;;;;4.50;3.00;;;;;;;29.02;35.14;101145.50;5031896;28;20060;-84
2023/06/24 15:07:07;;;;;;;6.88;3.47;;;;;;;29.02;35.71;101149.03;5031882;28;20195;-85
2023/06/24 15:10:11;;;;;;;5.82;3.15;;;;;;;29.58;34.97;101138.53;5019535;28;20080;-85
2023/06/24 15:13:18;;;;;;;5.05;3.00;;;;;;;29.11;36.85;101133.59;5032130;28;20040;-82
2023/06/24 15:16:21;;;;;;;8.77;3.47;;;;;;;28.72;36.69;101140.09;5031889;28;20044;-82
2023/06/24 15:19:25;;;;;;;8.40;3.92;;;;;;;28.44;38.51;101134.47;5019523;28;20115;-81
2023/06/24 15:22:28;;;;;;;12.23;4.00;;;;;;;28.35;39.45;101130.97;5030318;28;20040;-84
2023/06/24 15:25:32;;;;;;;20.38;5.22;;;;;;;28.11;42.13;101132.03;5029890;28;20110;-81
2023/06/24 15:28:35;;;;;;;14.32;3.67;;;;;;;27.95;43.76;101135.69;5019583;28;20514;-81
2023/06/24 15:31:39;;;;;;;9.20;4.10;;;;;;;27.85;45.41;101132.38;5031046;28;20411;-81
2023/06/24 15:34:45;;;;;;;12.13;3.47;;;;;;;27.94;44.49;101133.16;5032641;28;20048;-81
2023/06/24 15:37:52;;;;;;;14.75;4.57;;;;;;;29.28;43.93;101124.28;5034886;28;20045;-83
2023/06/24 15:40:58;;;;;;;11.07;5.20;;;;;;;32.87;36.34;101109.94;5034949;28;20045;-82
2023/06/24 15:44:05;;;;;;;7.38;3.72;;;;;;;33.50;28.66;101115.53;5035393;28;20048;-82
2023/06/24 15:47:10;;;;;;;7.80;2.78;;;;;;;34.22;27.58;101110.66;5023362;28;20111;-82
2023/06/24 15:50:13;;;;;;;5.03;3.13;;;;;;;35.26;25.82;101102.69;5022980;28;20545;-82
2023/06/24 15:53:37;;;;;;;3.78;2.70;;;;;;;36.87;24.28;101104.47;5034918;28;20072;-82
2023/06/24 15:56:40;;;;;;;4.00;3.30;;;;;;;37.12;22.82;101099.56;5034906;28;20048;-81
2023/06/24 15:59:45;;;;;;;4.47;3.03;;;;;;;36.22;23.29;101091.84;5030471;28;20498;-81
2023/06/24 16:02:49;;;;;;;6.18;2.90;;;;;;;37.15;22.40;101096.34;5019588;28;20052;-83
2023/06/24 16:05:55;;;;;;;5.78;3.10;;;;;;;37.14;22.52;101088.41;5014730;28;20087;-84
2023/06/24 16:09:02;;;;;;;9.23;3.35;;;;;;;34.91;25.42;101084.28;5014794;28;20124;-85
2023/06/24 16:12:08;;;;;;;8.25;5.10;;;;;;;33.72;26.05;101075.34;5022259;28;20052;-82
2023/06/24 16:15:12;;;;;;;36.40;32.78;;;;;;;33.23;27.57;101076.88;5025883;28;20534;-80
2023/06/24 16:18:16;;;;;;;22.40;20.15;;;;;;;33.00;28.35;101071.16;5022915;28;20059;-84
2023/06/24 16:21:21;;;;;;;8.38;7.53;;;;;;;32.07;28.97;101074.00;5034965;28;20470;-86
2023/06/24 16:24:29;;;;;;;5.50;3.53;;;;;;;31.17;29.51;101078.78;5034988;28;20040;-84
2023/06/24 16:27:34;;;;;;;8.38;5.75;;;;;;;31.10;31.04;101073.34;5028000;28;20573;-82
2023/06/24 16:30:39;;;;;;;5.00;4.50;;;;;;;30.96;31.45;101074.34;5034177;28;20123;-87
2023/06/24 16:33:42;;;;;;;6.22;5.53;;;;;;;30.94;31.22;101079.09;4998832;28;20049;-86
2023/06/24 16:36:50;;;;;;;16.50;14.88;;;;;;;30.74;31.32;101073.59;5022346;28;20077;-83
2023/06/24 16:39:57;;;;;;;4.53;3.88;;;;;;;30.76;31.18;101075.06;5034434;28;20083;-84
2023/06/24 16:43:01;;;;;;;5.40;3.90;;;;;;;30.78;31.05;101078.41;5034441;28;20052;-83
2023/06/24 16:46:05;;;;;;;4.55;2.85;;;;;;;30.61;31.55;101071.63;5033191;28;20051;-82
2023/06/24 16:49:13;;;;;;;3.70;2.90;;;;;;;30.55;32.06;101073.25;5032451;28;20141;-86
2023/06/24 16:52:18;;;;;;;9.73;3.47;;;;;;;30.31;34.83;101071.00;5033418;28;20051;-86
2023/06/24 16:55:33;;;;;;;7.20;3.10;;;;;;;29.89;34.70;101070.84;5034128;28;20053;-81
2023/06/24 16:58:40;;;;;;;3.40;2.50;;;;;;;29.58;34.99;101071.19;5007425;28;20041;-84
2023/06/24 17:01:44;;;;;;;15.75;3.70;;;;;;;29.51;37.13;101072.13;5014268;28;20056;-73
2023/06/24 17:04:56;;;;;;;4.50;3.13;;;;;;;29.43;38.56;101070.38;5014108;28;20168;-87
2023/06/24 17:13:50;;;;;;;5.07;3.80;;;;;;;29.06;40.84;101072.22;5013187;28;20049;-86
2023/06/24 17:22:06;;;;;;;4.00;2.83;;;;;;;28.68;41.26;101063.41;5006354;28;20091;-86
2023/06/24 17:33:39;;;;;;;5.40;3.40;;;;;;;28.15;42.00;101073.38;5295076;23;20053;-84
2023/06/24 17:42:07;;;;;;;4.55;2.80;;;;;;;27.91;42.05;101072.53;5011888;28;20044;-86
2023/06/24 17:45:55;;;;;;;9.18;3.45;;;;;;;27.71;42.79;101071.31;5001003;28;20100;-84
2023/06/24 17:49:00;;;;;;;4.05;3.53;;;;;;;27.59;42.74;101069.03;5028280;28;20044;-85
2023/06/24 17:52:04;;;;;;;4.55;3.53;;;;;;;27.42;44.10;101072.03;5032957;28;20044;-85
2023/06/24 17:55:10;;;;;;;10.63;3.72;;;;;;;27.23;44.96;101055.34;5032862;28;20232;-85
2023/06/24 17:58:27;;;;;;;6.20;3.90;;;;;;;27.04;46.17;101063.81;5032718;28;20048;-86
2023/06/24 18:01:58;;;;;;;6.50;3.40;;;;;;;26.90;46.37;101060.00;5027977;28;20040;-70
2023/06/24 18:05:02;;;;;;;5.60;4.00;;;;;;;26.76;47.47;101063.41;5032788;28;20137;-70
2023/06/24 18:08:05;;;;;;;6.20;3.63;;;;;;;26.65;48.47;101059.25;5032674;28;20084;-69
2023/06/24 18:11:08;;;;;;;4.38;3.50;;;;;;;26.58;48.62;101064.47;5032673;28;20581;-69
2023/06/24 18:14:13;;;;;;;4.85;3.53;;;;;;;26.36;49.80;101059.81;5032222;28;20087;-70
2023/06/24 18:17:17;;;;;;;4.75;3.45;;;;;;;26.24;49.20;101056.63;5031264;28;20412;-70
2023/06/24 18:20:20;;;;;;;10.93;3.65;;;;;;;26.11;49.98;101061.66;5025062;28;20043;-70
2023/06/24 18:23:27;;;;;;;10.45;3.15;;;;;;;25.98;51.22;101063.00;5032607;28;20052;-70
2023/06/24 18:26:30;;;;;;;6.05;4.03;;;;;;;25.83;52.08;101063.84;5020503;28;20591;-71
2023/06/24 18:29:34;;;;;;;4.72;3.50;;;;;;;25.60;52.06;101060.94;5021248;28;20056;-79
2023/06/24 18:32:38;;;;;;;6.43;3.78;;;;;;;25.62;51.84;101056.25;4995684;28;20084;-81
2023/06/24 18:35:41;;;;;;;6.15;3.40;;;;;;;25.55;51.75;101056.06;5001855;28;20092;-81
2023/06/24 18:38:44;;;;;;;6.22;4.20;;;;;;;25.51;53.27;101060.09;5001864;28;20044;-78
2023/06/24 18:41:48;;;;;;;7.68;4.03;;;;;;;25.51;52.89;101060.91;4992880;28;20041;-77
2023/06/24 18:44:51;;;;;;;5.25;3.65;;;;;;;25.45;52.97;101055.38;4999865;28;20045;-76
2023/06/24 18:47:58;;;;;;;5.80;4.13;;;;;;;25.27;53.00;101066.22;5003100;28;20045;-77
2023/06/24 18:51:04;;;;;;;6.82;4.28;;;;;;;25.07;53.28;101057.59;5001232;28;20049;-77
2023/06/24 18:54:08;;;;;;;4.88;3.70;;;;;;;25.12;53.30;101057.13;5007700;28;20048;-78
2023/06/24 18:57:12;;;;;;;5.72;4.15;;;;;;;24.86;54.02;101058.03;5012697;28;20561;-78
2023/06/24 19:00:17;;;;;;;7.00;4.15;;;;;;;24.69;57.56;101067.78;5012346;28;20153;-78
2023/06/24 19:03:23;;;;;;;6.80;4.20;;;;;;;24.49;59.14;101069.84;5000668;28;20044;-77
2023/06/24 19:06:27;;;;;;;10.40;3.30;;;;;;;24.33;60.11;101067.88;5012209;28;20052;-78
2023/06/24 19:09:30;;;;;;;10.45;3.85;;;;;;;24.13;60.69;101064.56;5012966;28;20107;-77
2023/06/24 19:12:33;;;;;;;7.63;3.97;;;;;;;23.97;63.34;101064.44;5016394;28;20045;-77
2023/06/24 19:15:37;;;;;;;10.30;3.92;;;;;;;23.85;64.23;101063.00;5003357;28;20415;-76
2023/06/24 19:18:40;;;;;;;4.32;3.75;;;;;;;23.67;64.17;101068.28;5006936;28;20068;-77
2023/06/24 19:21:43;;;;;;;4.55;3.67;;;;;;;23.63;63.78;101066.91;4996510;28;20041;-77
2023/06/24 19:24:47;;;;;;;7.43;3.90;;;;;;;23.44;63.51;101059.88;4984636;28;20269;-77
2023/06/24 19:27:53;;;;;;;8.13;3.78;;;;;;;23.33;63.92;101055.63;4996409;28;20141;-76
2023/06/24 19:30:58;;;;;;;7.22;4.10;;;;;;;23.24;64.52;101069.84;4996224;28;20079;-75
2023/06/24 19:34:01;;;;;;;10.35;4.38;;;;;;;23.19;63.81;101064.13;5009278;28;20487;-77
2023/06/24 19:37:05;;;;;;;7.90;3.90;;;;;;;23.05;64.08;101061.97;5015701;28;20080;-77
2023/06/24 19:40:08;;;;;;;5.65;3.63;;;;;;;22.90;65.53;101064.22;5015595;28;20045;-77
2023/06/24 19:43:12;;;;;;;6.80;3.88;;;;;;;22.73;66.53;101068.50;5015654;28;20173;-77
2023/06/24 19:46:16;;;;;;;7.05;4.50;;;;;;;22.63;66.93;101078.38;5015562;28;20049;-76
2023/06/24 19:49:20;;;;;;;10.50;4.63;;;;;;;22.60;66.91;101076.00;5015600;28;20132;-76
2023/06/24 19:52:24;;;;;;;6.68;4.13;;;;;;;22.37;66.79;101078.16;5015516;28;20044;-77
2023/06/24 19:55:31;;;;;;;8.10;4.03;;;;;;;22.39;65.89;101078.84;5015419;28;20459;-76
2023/06/24 19:58:39;;;;;;;7.20;4.07;;;;;;;22.23;65.83;101082.09;5015370;28;20467;-76
2023/06/24 20:01:44;;;;;;;8.65;4.32;;;;;;;22.06;66.43;101081.81;5015394;28;20040;-75
2023/06/24 20:04:51;;;;;;;9.07;3.97;;;;;;;22.04;67.45;101081.09;5015520;28;20045;-76
2023/06/24 20:07:55;;;;;;;5.82;4.00;;;;;;;21.95;67.31;101089.09;5015237;28;20103;-77
2023/06/24 20:11:04;;;;;;;7.40;4.07;;;;;;;21.85;68.54;101091.75;5014821;28;20534;-76
2023/06/24 20:14:11;;;;;;;5.53;4.25;;;;;;;21.78;68.93;101083.47;5015420;28;20149;-76
2023/06/24 20:17:19;;;;;;;6.88;4.80;;;;;;;21.69;69.61;101086.13;5014484;28;20063;-77
2023/06/24 20:20:22;;;;;;;5.65;4.07;;;;;;;21.62;70.01;101093.84;5013910;28;20564;-76
2023/06/24 20:23:26;;;;;;;8.73;4.60;;;;;;;21.58;70.20;101093.28;5015296;28;20048;-76